Time;durP1;ratioP1;P1;durP2;ratioP2;P2;SDS_P1;SDS_P2;PMS_P1;PMS_P2;Temp;Humidity;BMP_temperature;BMP_pressure;BME280_temperature;BME280_humidity;BME280_pressure;Samples;Min_cycle;Max_cycle;Signal;HPM_P1;HPM_P2
2023/05/27 00:01:36;;;;;;;1.95;1.13;;;;;;;14.91;100.00;97763.19;5049580;28;20403;-79
2023/05/27 00:04:02;;;;;;;0.95;0.80;;;;;;;14.90;100.00;97758.75;5040976;28;20033;-80
2023/05/27 00:06:27;;;;;;;0.45;0.45;;;;;;;14.80;100.00;97749.66;5064311;28;20056;-80
2023/05/27 00:08:53;;;;;;;0.40;0.40;;;;;;;14.74;100.00;97754.63;5069519;28;20028;-79
2023/05/27 00:11:18;;;;;;;0.15;0.15;;;;;;;14.72;100.00;97753.91;5057775;28;20037;-79
2023/05/27 00:13:44;;;;;;;2.08;0.60;;;;;;;14.67;100.00;97756.97;5058061;28;20028;-79
2023/05/27 00:16:09;;;;;;;0.38;0.13;;;;;;;14.65;100.00;97751.69;5053271;28;20400;-80
2023/05/27 00:18:35;;;;;;;4.30;0.80;;;;;;;14.58;100.00;97750.41;5052623;28;20253;-80
2023/05/27 00:21:01;;;;;;;0.00;0.00;;;;;;;14.54;100.00;97750.78;5070503;28;20029;-79
2023/05/27 00:23:26;;;;;;;0.10;0.10;;;;;;;14.55;100.00;97750.63;5052987;28;20024;-79
2023/05/27 00:25:52;;;;;;;0.00;0.00;;;;;;;14.55;100.00;97756.03;5036143;28;20071;-79
2023/05/27 00:28:18;;;;;;;0.52;0.45;;;;;;;14.60;100.00;97759.25;5057196;28;20033;-79
2023/05/27 00:34:57;;;;;;;0.22;0.22;;;;;;;14.22;100.00;97710.06;4998799;28;20037;-81
2023/05/27 00:37:45;;;;;;;0.10;0.10;;;;;;;14.22;100.00;97710.06;5040938;28;20041;-81
2023/05/27 00:43:30;;;;;;;1.25;0.60;;;;;;;14.39;100.00;97760.00;5045953;28;20078;-80
2023/05/27 00:45:56;;;;;;;0.10;0.10;;;;;;;14.39;100.00;97750.09;5031870;28;20064;-79
2023/05/27 00:48:22;;;;;;;0.20;0.20;;;;;;;14.41;100.00;97739.19;5015304;28;20071;-79
2023/05/27 00:50:47;;;;;;;0.22;0.20;;;;;;;14.37;100.00;97730.47;5021180;28;20025;-80
2023/05/27 00:53:13;;;;;;;0.45;0.38;;;;;;;14.40;100.00;97738.31;5019092;28;20056;-80
2023/05/27 00:55:39;;;;;;;0.10;0.10;;;;;;;14.45;100.00;97738.88;5035232;28;20518;-80
2023/05/27 00:58:04;;;;;;;0.08;0.03;;;;;;;14.39;100.00;97733.94;5035280;28;20116;-80
2023/05/27 01:00:31;;;;;;;0.30;0.30;;;;;;;14.35;100.00;97731.56;5069890;28;20401;-80
2023/05/27 01:02:57;;;;;;;0.28;0.22;;;;;;;14.22;100.00;97725.34;5018728;28;20044;-79
2023/05/27 01:05:23;;;;;;;0.40;0.30;;;;;;;14.18;100.00;97735.47;5065580;28;20101;-79
2023/05/27 01:08:24;;;;;;;0.30;0.30;;;;;;;14.22;100.00;97731.59;5065287;28;20024;-79
2023/05/27 01:10:54;;;;;;;0.05;0.05;;;;;;;14.21;100.00;97719.13;5035561;28;20029;-80
2023/05/27 01:13:44;;;;;;;0.65;0.65;;;;;;;14.34;100.00;97727.16;5052880;28;20045;-80
2023/05/27 01:16:12;;;;;;;0.00;0.00;;;;;;;14.25;100.00;97731.34;5058472;28;20021;-80
2023/05/27 01:18:41;;;;;;;0.28;0.10;;;;;;;14.20;100.00;97732.66;5061869;28;20032;-80
2023/05/27 01:21:10;;;;;;;6.03;1.30;;;;;;;14.17;100.00;97728.38;5058723;28;20388;-80
2023/05/27 01:23:38;;;;;;;0.47;0.47;;;;;;;14.12;100.00;97725.16;5051946;28;20078;-81
2023/05/27 01:26:04;;;;;;;0.20;0.20;;;;;;;14.08;100.00;97721.84;5035855;28;20484;-81
2023/05/27 01:28:30;;;;;;;0.98;0.52;;;;;;;14.08;100.00;97707.53;5053545;28;20472;-80
2023/05/27 01:31:18;;;;;;;;;;;;;;;;;;;;;
2023/05/27 01:37:48;;;;;;;;;;;;;;;;;;;;;
2023/05/27 01:41:07;;;;;;;0.55;0.55;;;;;;;13.74;100.00;97678.69;5065179;28;20028;-81
2023/05/27 01:43:51;;;;;;;0.95;0.38;;;;;;;13.53;100.00;97662.28;5062369;28;20039;-81
2023/05/27 01:46:54;;;;;;;0.63;0.63;;;;;;;13.78;100.00;97693.63;5072674;28;20464;-81
2023/05/27 01:53:17;;;;;;;1.08;0.20;;;;;;;13.81;100.00;97688.03;5058627;28;20036;-80
2023/05/27 01:56:07;;;;;;;0.32;0.32;;;;;;;13.62;100.00;97660.75;5047413;28;20072;-80
2023/05/27 01:59:05;;;;;;;0.43;0.43;;;;;;;13.68;100.00;97673.75;5065783;28;20469;-80
2023/05/27 02:02:02;;;;;;;;;;;;;;;;;;;;;
2023/05/27 02:04:28;;;;;;;0.25;0.25;;;;;;;13.79;100.00;97684.59;5063240;28;20021;-81
2023/05/27 02:07:30;;;;;;;1.65;0.75;;;;;;;13.69;100.00;97662.03;5044512;28;20115;-81
2023/05/27 02:09:56;;;;;;;0.77;0.75;;;;;;;13.79;100.00;97687.28;5035322;28;20033;-80
2023/05/27 02:12:21;;;;;;;0.85;0.65;;;;;;;13.88;100.00;97700.03;5051391;28;20436;-80
2023/05/27 02:14:48;;;;;;;0.47;0.30;;;;;;;13.89;100.00;97696.41;5034794;28;20067;-81
2023/05/27 02:17:14;;;;;;;0.20;0.20;;;;;;;13.95;100.00;97695.94;5054396;28;20499;-80
2023/05/27 02:19:40;;;;;;;0.22;0.22;;;;;;;13.98;100.00;97695.72;5071122;28;20020;-80
2023/05/27 02:22:06;;;;;;;0.08;0.08;;;;;;;13.95;100.00;97698.63;5071698;28;20020;-80
2023/05/27 02:24:32;;;;;;;0.70;0.65;;;;;;;13.89;100.00;97701.78;5065964;28;20032;-80
2023/05/27 02:26:58;;;;;;;0.55;0.47;;;;;;;13.84;100.00;97701.25;5053682;28;20048;-80
2023/05/27 02:29:24;;;;;;;0.28;0.28;;;;;;;13.85;100.00;97700.28;5042501;28;20051;-79
2023/05/27 02:31:49;;;;;;;1.10;0.65;;;;;;;13.78;100.00;97693.63;5061412;28;20119;-81
2023/05/27 02:34:15;;;;;;;0.30;0.30;;;;;;;13.82;100.00;97704.03;5070898;28;20055;-81
2023/05/27 02:36:40;;;;;;;0.88;0.50;;;;;;;13.83;100.00;97702.22;5071291;28;20093;-81
2023/05/27 02:39:06;;;;;;;6.38;1.00;;;;;;;13.82;100.00;97700.50;5054044;28;20408;-79
2023/05/27 02:41:31;;;;;;;0.38;0.32;;;;;;;13.81;100.00;97701.47;5050610;28;20025;-81
2023/05/27 02:43:57;;;;;;;1.00;0.85;;;;;;;13.81;100.00;97693.41;5069901;28;20027;-79
2023/05/27 02:46:22;;;;;;;0.47;0.35;;;;;;;13.85;100.00;97702.97;5062638;28;20475;-80
2023/05/27 02:48:48;;;;;;;0.10;0.10;;;;;;;13.83;100.00;97699.53;5053956;28;20028;-81
2023/05/27 02:51:13;;;;;;;0.80;0.43;;;;;;;13.86;100.00;97705.56;5051507;28;20408;-80
2023/05/27 02:53:39;;;;;;;0.57;0.40;;;;;;;13.87;100.00;97706.41;5064535;28;20114;-81
2023/05/27 02:56:04;;;;;;;0.38;0.38;;;;;;;13.81;100.00;97713.06;5070277;28;20036;-80
2023/05/27 02:58:30;;;;;;;0.82;0.20;;;;;;;13.74;100.00;97714.50;5070773;28;20067;-81
2023/05/27 03:00:55;;;;;;;0.30;0.30;;;;;;;13.77;100.00;97713.41;5054332;28;20442;-82
2023/05/27 03:03:21;;;;;;;0.68;0.68;;;;;;;13.78;100.00;97712.47;5067550;28;20028;-82
2023/05/27 03:05:47;;;;;;;0.20;0.20;;;;;;;13.81;100.00;97723.00;5050338;28;20033;-80
2023/05/27 03:08:12;;;;;;;3.45;0.55;;;;;;;13.78;100.00;97736.66;5053097;28;20036;-80
2023/05/27 03:10:38;;;;;;;0.55;0.50;;;;;;;13.84;100.00;97730.84;5070291;28;20028;-81
2023/05/27 03:13:04;;;;;;;0.50;0.50;;;;;;;13.85;100.00;97727.16;5069301;28;20028;-80
2023/05/27 03:15:29;;;;;;;2.60;1.05;;;;;;;13.90;100.00;97731.25;5051568;28;20033;-81
2023/05/27 03:17:56;;;;;;;0.70;0.38;;;;;;;13.94;100.00;97731.88;5051344;28;20082;-80
2023/05/27 03:20:21;;;;;;;6.00;2.08;;;;;;;13.96;100.00;97743.41;5035881;28;20033;-80
2023/05/27 03:22:47;;;;;;;0.82;0.80;;;;;;;13.95;100.00;97725.53;5053533;28;20013;-80
2023/05/27 03:25:13;;;;;;;1.00;0.70;;;;;;;13.90;100.00;97735.78;5035660;28;20067;-80
2023/05/27 03:27:39;;;;;;;1.38;0.65;;;;;;;13.86;100.00;97729.75;5050353;28;20056;-80
2023/05/27 03:30:06;;;;;;;0.98;0.38;;;;;;;13.79;100.00;97722.22;5033349;28;20095;-80
2023/05/27 03:32:31;;;;;;;0.80;0.73;;;;;;;13.73;100.00;97723.53;5031412;28;20028;-80
2023/05/27 03:34:58;;;;;;;0.70;0.50;;;;;;;13.67;100.00;97718.59;5053469;28;20136;-81
2023/05/27 03:37:24;;;;;;;0.77;0.55;;;;;;;13.74;100.00;97729.78;5053400;28;20064;-81
2023/05/27 03:39:49;;;;;;;0.52;0.52;;;;;;;13.81;100.00;97731.91;5070078;28;20070;-81
2023/05/27 03:42:15;;;;;;;1.23;1.13;;;;;;;13.85;100.00;97732.53;5069957;28;20020;-81
2023/05/27 03:44:40;;;;;;;1.58;0.70;;;;;;;13.91;100.00;97748.22;5065607;28;20029;-81
2023/05/27 03:47:06;;;;;;;3.42;1.38;;;;;;;13.94;100.00;97748.00;5051993;28;20116;-81
2023/05/27 03:49:31;;;;;;;4.53;1.20;;;;;;;13.99;100.00;97743.19;5052943;28;20451;-81
2023/05/27 03:51:57;;;;;;;0.40;0.40;;;;;;;14.00;100.00;97745.75;5052886;28;20078;-81
2023/05/27 03:54:22;;;;;;;0.55;0.55;;;;;;;14.06;100.00;97744.44;5051568;28;20028;-82
2023/05/27 03:56:48;;;;;;;0.93;0.50;;;;;;;14.12;100.00;97738.59;5033167;28;20020;-80
2023/05/27 03:59:14;;;;;;;1.25;0.45;;;;;;;14.20;100.00;97748.81;5069470;28;20024;-82
2023/05/27 04:01:41;;;;;;;4.00;1.05;;;;;;;14.25;100.00;97752.88;5069567;28;20035;-82
2023/05/27 04:04:06;;;;;;;1.13;0.60;;;;;;;14.34;100.00;97762.13;5038734;28;20028;-81
2023/05/27 04:06:33;;;;;;;1.15;0.75;;;;;;;14.32;100.00;97754.16;5049615;28;20416;-81
2023/05/27 04:08:58;;;;;;;1.25;0.82;;;;;;;14.32;100.00;97754.16;5049582;28;20024;-82
2023/05/27 04:11:27;;;;;;;0.85;0.80;;;;;;;14.36;100.00;97755.69;5049840;28;20025;-82
2023/05/27 04:13:52;;;;;;;0.50;0.50;;;;;;;14.40;100.00;97750.91;5061266;28;20518;-83
2023/05/27 04:16:18;;;;;;;0.20;0.20;;;;;;;14.41;100.00;97745.44;5045430;28;20112;-81
2023/05/27 04:18:48;;;;;;;2.00;0.73;;;;;;;14.38;100.00;97734.03;5032683;28;20095;-81
2023/05/27 04:21:15;;;;;;;0.95;0.90;;;;;;;14.43;100.00;97729.16;5049485;28;20033;-82
2023/05/27 04:23:41;;;;;;;5.82;0.70;;;;;;;14.50;100.00;97731.28;5057822;28;20043;-81
2023/05/27 04:26:06;;;;;;;0.28;0.28;;;;;;;14.52;100.00;97734.72;5057998;28;20028;-80
2023/05/27 04:28:34;;;;;;;0.22;0.22;;;;;;;14.60;100.00;97737.72;5056163;28;20044;-81
2023/05/27 04:30:59;;;;;;;0.85;0.40;;;;;;;14.68;100.00;97738.94;5056488;28;20554;-82
2023/05/27 04:33:26;;;;;;;0.60;0.60;;;;;;;14.69;100.00;97735.28;5069210;28;20052;-76
2023/05/27 04:35:53;;;;;;;0.47;0.47;;;;;;;14.86;100.00;97737.59;5056302;28;20028;-78
2023/05/27 04:38:20;;;;;;;0.30;0.30;;;;;;;14.98;100.00;97736.66;5060700;28;20036;-81
2023/05/27 04:40:56;;;;;;;0.13;0.13;;;;;;;14.92;100.00;97726.34;5071358;28;20403;-79
2023/05/27 04:43:23;;;;;;;0.98;0.50;;;;;;;14.99;100.00;97723.03;5054553;28;20032;-82
2023/05/27 04:45:49;;;;;;;0.98;0.80;;;;;;;15.03;100.00;97711.06;5070139;28;20506;-82
2023/05/27 04:48:15;;;;;;;0.55;0.55;;;;;;;15.14;100.00;97715.59;5066129;28;20036;-83
2023/05/27 04:50:41;;;;;;;0.35;0.35;;;;;;;15.31;100.00;97704.38;5057115;28;20044;-81
2023/05/27 04:53:08;;;;;;;0.73;0.45;;;;;;;15.42;100.00;97699.00;5051222;28;20120;-81
2023/05/27 04:55:34;;;;;;;0.60;0.40;;;;;;;15.69;100.00;97701.34;5033444;28;20044;-80
2023/05/27 04:58:03;;;;;;;1.85;1.13;;;;;;;16.27;100.00;97697.50;5041272;28;20116;-81
2023/05/27 05:03:20;;;;;;;0.30;0.30;;;;;;;16.80;100.00;97629.06;5066858;28;20059;-81
2023/05/27 05:05:47;;;;;;;0.05;0.05;;;;;;;16.87;100.00;97606.91;5051341;28;20029;-81
2023/05/27 05:08:13;;;;;;;0.85;0.35;;;;;;;17.17;100.00;97606.94;5049882;28;20068;-81
2023/05/27 05:10:38;;;;;;;0.20;0.20;;;;;;;17.22;100.00;97593.91;5040042;28;20515;-81
2023/05/27 05:13:04;;;;;;;0.45;0.45;;;;;;;17.09;100.00;97594.13;5034077;28;20027;-82
2023/05/27 05:15:30;;;;;;;1.08;0.82;;;;;;;16.99;100.00;97592.34;5047001;28;20436;-80
2023/05/27 05:17:56;;;;;;;0.60;0.60;;;;;;;16.87;100.00;97588.88;5069489;28;20028;-81
2023/05/27 05:20:21;;;;;;;0.63;0.60;;;;;;;16.90;100.00;97587.72;5065669;28;20040;-81
2023/05/27 05:22:48;;;;;;;1.48;1.00;;;;;;;17.23;100.00;97580.25;5042565;28;20103;-82
2023/05/27 05:25:14;;;;;;;1.17;0.82;;;;;;;17.40;100.00;97559.81;5032662;28;21379;-80
2023/05/27 05:27:39;;;;;;;1.50;0.73;;;;;;;17.62;100.00;97564.19;5048707;28;20047;-83
2023/05/27 05:30:05;;;;;;;5.43;3.10;;;;;;;18.04;100.00;97559.44;5044113;28;20516;-81
2023/05/27 05:32:31;;;;;;;0.88;0.20;;;;;;;18.17;100.00;97532.94;5069316;28;20037;-81
2023/05/27 05:34:57;;;;;;;3.97;1.70;;;;;;;18.39;100.00;97530.78;5034557;28;20031;-82
2023/05/27 05:37:22;;;;;;;5.38;2.80;;;;;;;18.73;100.00;97536.66;5024866;28;20480;-82
2023/05/27 05:39:48;;;;;;;0.60;0.40;;;;;;;18.81;100.00;97536.75;5049540;28;20036;-82
2023/05/27 05:42:13;;;;;;;2.08;1.85;;;;;;;19.32;100.00;97524.56;5032595;28;20480;-81
2023/05/27 05:44:39;;;;;;;0.32;0.32;;;;;;;20.30;100.00;97527.47;5050913;28;20040;-82
2023/05/27 05:47:04;;;;;;;1.23;0.57;;;;;;;20.62;100.00;97518.72;5049458;28;20159;-80
2023/05/27 05:49:30;;;;;;;2.28;1.00;;;;;;;20.41;100.00;97503.63;5062539;28;20031;-83
2023/05/27 05:51:55;;;;;;;0.95;0.57;;;;;;;19.64;100.00;97500.59;5052301;28;20035;-83
2023/05/27 05:54:21;;;;;;;0.30;0.30;;;;;;;18.99;100.00;97511.59;5067317;28;20123;-81
2023/05/27 05:56:47;;;;;;;1.17;0.75;;;;;;;19.00;100.00;97511.44;5046500;28;20025;-82
2023/05/27 05:59:12;;;;;;;0.15;0.15;;;;;;;19.02;100.00;97509.44;5034107;28;20020;-81
2023/05/27 06:01:38;;;;;;;1.42;1.10;;;;;;;19.10;100.00;97516.84;5032386;28;20036;-80
2023/05/27 06:04:06;;;;;;;3.90;1.20;;;;;;;19.16;100.00;97529.81;5049262;28;20489;-80
2023/05/27 06:06:31;;;;;;;0.95;0.57;;;;;;;18.99;100.00;97522.44;5049069;28;20547;-81
2023/05/27 06:08:57;;;;;;;0.98;0.70;;;;;;;18.83;100.00;97525.75;5048830;28;20021;-80
2023/05/27 06:11:23;;;;;;;0.90;0.82;;;;;;;19.04;100.00;97523.69;5059033;28;20076;-81
2023/05/27 06:13:48;;;;;;;0.20;0.20;;;;;;;18.99;100.00;97525.13;5067163;28;20086;-80
2023/05/27 06:16:14;;;;;;;1.95;0.98;;;;;;;18.82;100.00;97511.38;5069542;28;20475;-80
2023/05/27 06:18:39;;;;;;;1.73;1.52;;;;;;;19.49;100.00;97521.13;5064402;28;20102;-81
2023/05/27 06:21:05;;;;;;;0.43;0.43;;;;;;;19.78;100.00;97519.06;5031782;28;20119;-81
2023/05/27 06:23:31;;;;;;;0.45;0.45;;;;;;;19.89;100.00;97520.72;5031968;28;20033;-81
2023/05/27 06:25:56;;;;;;;0.38;0.35;;;;;;;20.00;100.00;97523.22;5046164;28;20503;-79
2023/05/27 06:28:22;;;;;;;0.60;0.40;;;;;;;19.89;100.00;97518.88;5032496;28;20044;-80
2023/05/27 06:30:47;;;;;;;3.75;0.85;;;;;;;19.98;100.00;97520.66;5061614;28;20118;-80
2023/05/27 06:33:12;;;;;;;1.33;1.23;;;;;;;19.95;100.00;97526.41;5058546;28;20037;-80
2023/05/27 06:35:38;;;;;;;0.30;0.30;;;;;;;19.89;100.00;97513.44;5048006;28;20112;-80
2023/05/27 06:38:05;;;;;;;3.75;0.60;;;;;;;19.69;100.00;97530.84;5031791;28;20024;-80
2023/05/27 06:40:31;;;;;;;0.13;0.13;;;;;;;19.81;100.00;97529.63;5033785;28;20037;-80
2023/05/27 06:42:56;;;;;;;0.40;0.40;;;;;;;19.57;100.00;97526.63;5062597;28;20115;-80
2023/05/27 06:45:22;;;;;;;0.17;0.17;;;;;;;19.30;100.00;97540.16;5040308;28;20119;-79
2023/05/27 06:47:47;;;;;;;4.57;1.77;;;;;;;18.90;100.00;97533.16;5063127;28;20037;-80
2023/05/27 06:50:13;;;;;;;0.32;0.32;;;;;;;18.85;100.00;97534.63;5038578;28;20024;-80
2023/05/27 06:52:38;;;;;;;0.28;0.28;;;;;;;18.58;100.00;97538.06;5067862;28;20831;-79
2023/05/27 06:55:04;;;;;;;1.00;0.75;;;;;;;18.29;100.00;97548.91;5067899;28;20028;-80
2023/05/27 06:57:30;;;;;;;0.40;0.40;;;;;;;18.35;100.00;97551.03;5049477;28;20039;-79
2023/05/27 06:59:55;;;;;;;1.52;0.30;;;;;;;18.24;100.00;97563.88;5037897;28;20048;-80
2023/05/27 07:02:21;;;;;;;0.40;0.30;;;;;;;17.94;100.00;97572.94;5056800;28;20028;-79
2023/05/27 07:04:46;;;;;;;0.50;0.50;;;;;;;18.01;100.00;97571.41;5050623;28;20036;-79
2023/05/27 07:07:12;;;;;;;24.65;1.10;;;;;;;17.86;100.00;97567.38;5067450;28;20488;-81
2023/05/27 07:09:37;;;;;;;0.20;0.20;;;;;;;17.70;100.00;97567.91;5065375;28;20048;-80
2023/05/27 07:12:03;;;;;;;0.95;0.82;;;;;;;17.61;100.00;97584.97;5047393;28;20479;-81
2023/05/27 07:14:29;;;;;;;0.63;0.63;;;;;;;17.58;100.00;97582.56;5047155;28;20354;-79
2023/05/27 07:16:55;;;;;;;0.40;0.40;;;;;;;17.70;100.00;97594.13;5055773;28;20078;-79
2023/05/27 07:19:22;;;;;;;0.68;0.63;;;;;;;17.76;100.00;97599.84;5062842;28;20407;-79
2023/05/27 07:21:47;;;;;;;0.65;0.65;;;;;;;17.78;100.00;97616.78;5047826;28;20061;-79
2023/05/27 07:24:13;;;;;;;1.40;0.88;;;;;;;17.69;100.00;97609.50;5047234;28;20063;-83
2023/05/27 07:26:39;;;;;;;2.13;1.17;;;;;;;17.61;100.00;97612.03;5046840;28;20037;-78
2023/05/27 07:29:05;;;;;;;1.75;0.88;;;;;;;17.61;100.00;97614.75;5060478;28;20435;-79
2023/05/27 07:31:30;;;;;;;0.65;0.65;;;;;;;17.56;100.00;97618.84;5041431;28;20053;-79
2023/05/27 07:33:56;;;;;;;0.98;0.90;;;;;;;17.64;100.00;97628.00;5034091;28;20526;-83
2023/05/27 07:36:21;;;;;;;0.20;0.20;;;;;;;17.60;100.00;97639.22;5037204;28;20076;-81
2023/05/27 07:38:47;;;;;;;1.40;0.95;;;;;;;17.61;100.00;97641.78;5058289;28;20038;-80
2023/05/27 07:41:13;;;;;;;1.90;1.45;;;;;;;17.64;100.00;97646.94;5063398;28;20108;-81
2023/05/27 07:43:38;;;;;;;0.45;0.45;;;;;;;17.63;100.00;97637.09;5030691;28;20036;-79
2023/05/27 07:46:04;;;;;;;0.30;0.30;;;;;;;17.75;100.00;97645.97;5054762;28;20021;-80
2023/05/27 07:48:30;;;;;;;0.68;0.68;;;;;;;17.78;100.00;97632.19;5046586;28;20494;-80
2023/05/27 07:50:55;;;;;;;1.25;0.47;;;;;;;17.68;100.00;97629.44;5033940;28;20035;-81
2023/05/27 07:53:23;;;;;;;0.20;0.20;;;;;;;17.68;100.00;97629.44;5034343;28;20033;-81
2023/05/27 07:55:49;;;;;;;0.10;0.10;;;;;;;17.72;100.00;97628.16;5030144;28;20032;-79
2023/05/27 07:58:15;;;;;;;1.30;0.85;;;;;;;17.76;100.00;97621.47;5056508;28;20041;-80
2023/05/27 08:00:40;;;;;;;0.50;0.50;;;;;;;17.82;100.00;97622.78;5032938;28;20037;-80
2023/05/27 08:03:06;;;;;;;1.60;0.77;;;;;;;17.88;100.00;97631.19;5046383;28;20028;-80
2023/05/27 08:05:32;;;;;;;0.35;0.35;;;;;;;17.90;100.00;97636.50;5047123;28;20043;-80
2023/05/27 08:07:58;;;;;;;3.25;1.48;;;;;;;18.08;100.00;97634.81;5042559;28;20060;-80
2023/05/27 08:10:23;;;;;;;2.03;0.50;;;;;;;18.14;100.00;97623.44;5039916;28;20047;-81
2023/05/27 08:12:49;;;;;;;0.77;0.57;;;;;;;18.34;100.00;97627.88;5069270;28;20036;-80
2023/05/27 08:15:35;;;;;;;9.23;1.83;;;;;;;18.45;100.00;97613.34;5059649;28;20040;-81
2023/05/27 08:18:01;;;;;;;0.57;0.57;;;;;;;18.67;100.00;97615.78;5058660;28;20037;-80
2023/05/27 08:20:27;;;;;;;0.70;0.70;;;;;;;18.69;100.00;97602.97;5040017;28;20028;-81
2023/05/27 08:22:53;;;;;;;0.75;0.50;;;;;;;19.05;100.00;97605.88;5053752;28;20188;-80
2023/05/27 08:25:18;;;;;;;0.95;0.73;;;;;;;19.32;100.00;97589.69;5041285;28;20040;-80
2023/05/27 08:27:57;;;;;;;6.68;3.42;;;;;;;20.09;100.00;97592.06;5054647;28;20029;-81
2023/05/27 08:30:23;;;;;;;2.05;0.95;;;;;;;20.78;100.00;97575.94;5065704;28;20071;-81
2023/05/27 08:32:48;;;;;;;5.90;1.25;;;;;;;21.24;100.00;97569.34;5033608;28;20021;-81
2023/05/27 08:35:14;;;;;;;0.65;0.65;;;;;;;21.63;100.00;97543.34;5033881;28;20025;-80
2023/05/27 08:37:40;;;;;;;5.60;1.48;;;;;;;22.36;100.00;97538.13;5056659;28;20033;-81
2023/05/27 08:40:10;;;;;;;0.80;0.77;;;;;;;22.51;100.00;97529.13;5035463;28;20029;-81
2023/05/27 08:42:36;;;;;;;0.60;0.60;;;;;;;23.11;100.00;97529.59;5043493;28;20013;-81
2023/05/27 08:45:01;;;;;;;0.40;0.40;;;;;;;23.41;100.00;97522.56;5053639;28;20028;-82
2023/05/27 08:47:29;;;;;;;1.27;0.70;;;;;;;22.96;100.00;97517.69;5066828;28;20070;-80
2023/05/27 08:49:54;;;;;;;0.40;0.40;;;;;;;22.36;100.00;97527.22;5055647;28;20024;-80
2023/05/27 08:52:20;;;;;;;0.45;0.30;;;;;;;21.97;100.00;97530.56;5061570;28;20067;-79
2023/05/27 08:54:47;;;;;;;0.75;0.73;;;;;;;22.03;100.00;97527.16;5059614;28;20034;-80
2023/05/27 08:57:12;;;;;;;0.68;0.47;;;;;;;22.47;100.00;97532.34;5053517;28;20102;-80
2023/05/27 08:59:39;;;;;;;0.52;0.50;;;;;;;22.88;100.00;97541.41;5047231;28;20028;-79
2023/05/27 09:02:10;;;;;;;0.70;0.70;;;;;;;23.03;100.00;97524.19;5053944;28;20444;-80
2023/05/27 09:04:37;;;;;;;16.30;1.97;;;;;;;22.96;100.00;97528.59;5038277;28;20039;-79
2023/05/27 09:07:02;;;;;;;1.30;1.10;;;;;;;23.08;100.00;97532.69;5057624;28;20103;-80
2023/05/27 09:09:28;;;;;;;1.55;1.13;;;;;;;23.35;100.00;97534.16;5057630;28;20032;-80
2023/05/27 09:11:59;;;;;;;0.45;0.45;;;;;;;23.77;100.00;97533.88;5042037;28;20403;-80
2023/05/27 09:14:24;;;;;;;1.08;0.98;;;;;;;23.94;100.00;97534.63;5068440;28;20029;-79
2023/05/27 09:16:50;;;;;;;1.70;1.33;;;;;;;23.28;100.00;97518.66;5048136;28;20032;-79
2023/05/27 09:19:20;;;;;;;1.55;0.75;;;;;;;21.64;100.00;97531.44;5072031;28;20024;-80
2023/05/27 09:21:45;;;;;;;0.55;0.55;;;;;;;21.42;100.00;97542.91;5043741;28;20444;-80
2023/05/27 09:24:11;;;;;;;1.50;1.17;;;;;;;21.87;100.00;97556.22;5049328;28;20024;-80
2023/05/27 09:26:37;;;;;;;1.63;1.02;;;;;;;22.01;100.00;97551.00;5070687;28;20028;-80
2023/05/27 09:29:09;;;;;;;0.73;0.73;;;;;;;21.87;100.00;97546.13;5052661;28;20484;-81
2023/05/27 09:31:41;;;;;;;0.93;0.60;;;;;;;21.49;100.00;97546.69;5046788;28;20122;-80
2023/05/27 09:34:16;;;;;;;;;;;;;;;21.53;100.00;97539.91;5053026;28;20177;-80
2023/05/27 09:36:45;;;;;;;6.43;2.00;;;;;;;21.99;100.00;97550.34;5071726;28;20400;-81
2023/05/27 09:39:14;;;;;;;0.90;0.73;;;;;;;22.10;100.00;97522.75;5045823;28;20145;-80
2023/05/27 09:41:41;;;;;;;0.47;0.47;;;;;;;22.08;100.00;97524.81;5052403;28;20186;-80
2023/05/27 09:44:07;;;;;;;0.52;0.43;;;;;;;22.33;100.00;97513.94;5060966;28;20035;-81
2023/05/27 09:46:33;;;;;;;1.90;0.85;;;;;;;22.62;100.00;97526.03;5047256;28;20064;-80
2023/05/27 09:49:00;;;;;;;5.65;1.27;;;;;;;23.06;100.00;97503.88;5042381;28;20559;-81
2023/05/27 09:51:31;;;;;;;0.75;0.43;;;;;;;23.67;100.00;97501.31;5043499;28;20052;-81
2023/05/27 09:53:58;;;;;;;0.88;0.70;;;;;;;23.33;100.00;97489.78;5052444;28;20454;-80
2023/05/27 09:56:26;;;;;;;0.30;0.30;;;;;;;22.84;100.00;97497.25;5063343;28;20107;-80
2023/05/27 09:58:56;;;;;;;2.05;0.85;;;;;;;23.26;100.00;97513.34;5071583;28;20059;-80
2023/05/27 10:01:28;;;;;;;0.45;0.45;;;;;;;23.75;100.00;97503.13;5041252;28;20021;-80
2023/05/27 10:03:54;;;;;;;0.20;0.20;;;;;;;24.02;100.00;97480.78;5035354;28;20025;-81
2023/05/27 10:06:20;;;;;;;0.50;0.50;;;;;;;23.49;100.00;97480.72;5040230;28;20448;-81
2023/05/27 10:08:46;;;;;;;3.38;2.03;;;;;;;24.20;100.00;97486.00;5045332;28;20068;-81
2023/05/27 10:11:11;;;;;;;1.95;1.65;;;;;;;25.52;100.00;97483.59;5071132;28;20031;-80
2023/05/27 10:13:37;;;;;;;1.42;1.13;;;;;;;26.63;96.37;97471.19;5054328;28;20162;-80
2023/05/27 10:16:03;;;;;;;0.98;0.75;;;;;;;28.05;85.54;97458.84;5054366;28;20021;-81
2023/05/27 10:18:30;;;;;;;1.35;0.68;;;;;;;29.00;72.38;97437.38;5038176;28;20023;-81
2023/05/27 10:20:59;;;;;;;0.40;0.40;;;;;;;29.48;68.45;97430.50;5057036;28;20029;-81
2023/05/27 10:23:29;;;;;;;1.02;0.63;;;;;;;29.28;67.52;97426.97;5045910;28;20074;-81
2023/05/27 10:26:04;;;;;;;0.43;0.43;;;;;;;28.69;73.18;97429.75;5054301;28;20052;-81
2023/05/27 10:28:42;;;;;;;0.30;0.30;;;;;;;28.25;74.57;97427.56;5065444;28;20024;-81
2023/05/27 10:31:16;;;;;;;0.60;0.60;;;;;;;27.79;75.15;97410.91;5041843;28;20045;-80
2023/05/27 10:33:47;;;;;;;0.20;0.20;;;;;;;27.81;78.87;97422.53;5035236;28;20040;-80
2023/05/27 10:36:15;;;;;;;0.43;0.20;;;;;;;28.06;82.43;97425.59;5071113;28;20507;-81
2023/05/27 10:38:42;;;;;;;1.30;0.85;;;;;;;27.88;79.22;97419.81;5067432;28;20109;-80
2023/05/27 10:41:08;;;;;;;7.22;0.73;;;;;;;28.26;79.67;97418.25;5034187;28;20029;-81
2023/05/27 10:43:34;;;;;;;0.60;0.50;;;;;;;28.61;76.62;97404.31;5036417;28;20395;-81
2023/05/27 10:46:18;;;;;;;0.32;0.25;;;;;;;28.04;78.07;97397.44;5037028;28;20098;-81
2023/05/27 10:48:45;;;;;;;0.13;0.13;;;;;;;28.84;78.71;97413.00;5062299;28;20480;-81
2023/05/27 10:51:10;;;;;;;0.85;0.80;;;;;;;29.27;72.10;97394.94;5070528;28;20020;-81
2023/05/27 10:53:36;;;;;;;0.88;0.50;;;;;;;29.36;71.43;97388.13;5053822;28;20116;-82
2023/05/27 10:56:02;;;;;;;0.75;0.52;;;;;;;28.79;75.90;97383.38;5070275;28;20060;-80
2023/05/27 10:58:28;;;;;;;0.50;0.47;;;;;;;28.65;77.63;97389.06;5046932;28;20488;-81
2023/05/27 11:00:56;;;;;;;0.40;0.38;;;;;;;28.30;78.17;97377.41;5050424;28;20066;-81
2023/05/27 11:03:27;;;;;;;0.77;0.57;;;;;;;28.09;82.63;97388.56;5042256;28;20028;-80
2023/05/27 11:06:04;;;;;;;0.47;0.47;;;;;;;27.55;83.02;97391.34;5036196;28;20020;-80
2023/05/27 11:08:31;;;;;;;0.45;0.45;;;;;;;26.89;83.36;97371.72;5042841;28;20059;-82
2023/05/27 11:11:03;;;;;;;0.52;0.52;;;;;;;25.84;86.06;97366.13;5050870;28;20021;-81
2023/05/27 11:13:36;;;;;;;1.10;0.68;;;;;;;25.73;93.05;97385.84;5057330;28;20130;-81
2023/05/27 11:16:03;;;;;;;0.77;0.77;;;;;;;26.41;91.98;97392.66;5069688;28;20062;-81
2023/05/27 11:18:40;;;;;;;1.00;0.57;;;;;;;26.87;86.05;97388.41;5061439;28;20059;-81
2023/05/27 11:21:11;;;;;;;1.63;0.85;;;;;;;26.98;85.62;97380.69;5033735;28;20072;-84
2023/05/27 11:23:44;;;;;;;0.52;0.52;;;;;;;27.02;83.68;97374.56;5033228;28;20029;-81
2023/05/27 11:26:17;;;;;;;1.08;0.50;;;;;;;26.31;85.40;97360.09;5036723;28;20035;-81
2023/05/27 11:28:54;;;;;;;0.52;0.30;;;;;;;27.11;80.04;97378.84;5071224;28;20024;-82
2023/05/27 11:31:21;;;;;;;0.68;0.50;;;;;;;29.02;71.26;97374.63;5055559;28;20046;-81
2023/05/27 11:33:49;;;;;;;1.13;0.68;;;;;;;30.19;65.15;97368.84;5041986;28;20477;-82
2023/05/27 11:36:16;;;;;;;0.20;0.20;;;;;;;30.94;63.78;97373.38;5033548;28;20029;-81
2023/05/27 11:38:56;;;;;;;1.17;0.57;;;;;;;31.12;56.41;97345.78;5041678;28;20039;-81
2023/05/27 11:41:26;;;;;;;0.65;0.52;;;;;;;29.22;63.80;97323.09;5029178;28;20031;-80
2023/05/27 11:44:04;;;;;;;7.43;4.40;;;;;;;30.11;63.35;97345.16;5050517;28;20060;-80
2023/05/27 11:46:37;;;;;;;7.97;4.57;;;;;;;29.74;64.24;97337.72;5050411;28;20040;-81
2023/05/27 11:49:04;;;;;;;6.38;4.30;;;;;;;29.74;62.15;97327.53;5047079;28;20032;-81
2023/05/27 11:51:31;;;;;;;5.40;4.47;;;;;;;30.49;51.99;97307.28;5039720;28;20028;-80